createdAt,value
2019-06-26T00:04:03.030Z,4.05
2019-06-26T00:08:06.561Z,4.42
2019-06-26T00:12:10.569Z,7.10
2019-06-26T00:16:14.160Z,7.78
2019-06-26T00:20:18.067Z,6.67
2019-06-26T00:24:24.315Z,5.95
2019-06-26T00:28:28.061Z,4.67
2019-06-26T00:32:31.686Z,4.58
2019-06-26T00:36:35.244Z,4.05
2019-06-26T00:40:38.744Z,9.05
2019-06-26T00:44:42.309Z,6.53
2019-06-26T00:48:46.148Z,4.45
2019-06-26T00:52:49.885Z,4.92
2019-06-26T00:56:54.077Z,7.17
2019-06-26T01:00:58.003Z,5.55
2019-06-26T01:05:03.483Z,5.40
2019-06-26T01:09:07.146Z,19.37
2019-06-26T01:13:11.982Z,5.13
2019-06-26T01:17:15.485Z,6.95
2019-06-26T01:21:19.037Z,6.40
2019-06-26T01:25:22.979Z,5.22
2019-06-26T01:29:26.474Z,14.35
2019-06-26T01:33:30.422Z,7.03
2019-06-26T01:37:34.127Z,9.83
2019-06-26T01:41:37.652Z,10.72
2019-06-26T01:45:41.247Z,14.35
2019-06-26T01:49:44.740Z,6.80
2019-06-26T01:53:48.244Z,9.40
2019-06-26T01:57:51.777Z,12.28
2019-06-26T02:01:55.279Z,26.57
2019-06-26T02:05:58.783Z,12.15
2019-06-26T02:10:02.323Z,10.05
2019-06-26T02:14:05.927Z,6.75
2019-06-26T02:18:19.904Z,6.90
2019-06-26T02:22:23.489Z,9.05
2019-06-26T02:26:27.143Z,10.48
2019-06-26T02:30:30.636Z,16.95
2019-06-26T02:34:34.639Z,6.90
2019-06-26T02:38:38.141Z,8.13
2019-06-26T02:42:42.005Z,9.55
2019-06-26T02:46:45.709Z,13.22
2019-06-26T02:50:49.177Z,12.18
2019-06-26T02:54:52.672Z,14.68
2019-06-26T02:58:56.169Z,7.95
2019-06-26T03:03:00.067Z,8.53
2019-06-26T03:07:03.564Z,9.80
2019-06-26T03:11:07.074Z,7.45
2019-06-26T03:15:11.184Z,13.93
2019-06-26T03:19:15.035Z,12.20
2019-06-26T03:23:18.681Z,23.32
2019-06-26T03:27:22.247Z,11.77
2019-06-26T03:31:25.804Z,16.02
2019-06-26T03:35:29.585Z,13.22
2019-06-26T03:39:33.200Z,12.93
2019-06-26T03:43:37.023Z,13.50
2019-06-26T03:47:40.564Z,7.15
2019-06-26T03:51:44.120Z,20.75
2019-06-26T03:55:47.627Z,11.30
2019-06-26T03:59:51.565Z,12.75
2019-06-26T04:03:57.352Z,8.63
2019-06-26T04:08:00.281Z,8.78
2019-06-26T04:12:05.529Z,15.18
2019-06-26T04:16:09.084Z,11.00
2019-06-26T04:20:13.174Z,8.90
2019-06-26T04:24:16.691Z,12.68
2019-06-26T04:28:20.210Z,10.90
2019-06-26T04:32:23.865Z,15.23
2019-06-26T04:36:27.444Z,12.73
2019-06-26T04:40:30.929Z,11.10
2019-06-26T04:44:34.813Z,10.65
2019-06-26T04:48:38.319Z,13.72
2019-06-26T04:52:41.889Z,9.38
2019-06-26T04:56:45.645Z,25.12
2019-06-26T05:00:49.258Z,10.05
2019-06-26T05:04:52.824Z,12.63
2019-06-26T05:08:56.701Z,10.45
2019-06-26T05:13:00.535Z,9.43
2019-06-26T05:17:04.035Z,10.35
2019-06-26T05:21:07.533Z,9.40
2019-06-26T05:25:11.725Z,11.43
2019-06-26T05:29:15.243Z,10.90
2019-06-26T05:33:18.734Z,8.95
2019-06-26T05:37:22.515Z,10.80
2019-06-26T05:41:26.124Z,12.43
2019-06-26T05:45:29.963Z,7.00
2019-06-26T05:49:33.461Z,11.40
2019-06-26T05:53:36.388Z,11.68
2019-06-26T05:57:41.891Z,8.25
2019-06-26T06:01:45.074Z,9.43
2019-06-26T06:05:48.720Z,7.17
2019-06-26T06:09:52.433Z,9.10
2019-06-26T06:13:56.290Z,8.55
2019-06-26T06:18:00.277Z,5.80
2019-06-26T06:22:03.904Z,9.93
2019-06-26T06:26:07.392Z,8.23
2019-06-26T06:30:11.327Z,7.50
2019-06-26T06:34:15.184Z,8.53
2019-06-26T06:38:18.964Z,7.62
2019-06-26T06:42:22.795Z,7.62
2019-06-26T06:46:26.468Z,11.18
2019-06-26T06:50:30.332Z,9.18
2019-06-26T06:54:33.931Z,7.92
2019-06-26T06:58:37.764Z,11.38
2019-06-26T07:02:41.267Z,6.87
2019-06-26T07:06:44.956Z,9.20
2019-06-26T07:10:48.750Z,7.67
2019-06-26T07:14:52.220Z,7.03
2019-06-26T07:22:59.227Z,5.43
2019-06-26T07:27:02.727Z,5.40
2019-06-26T07:31:06.224Z,8.30
2019-06-26T07:35:09.968Z,4.20
2019-06-26T07:39:13.460Z,4.50
2019-06-26T07:43:16.952Z,3.77
2019-06-26T07:47:23.481Z,4.12
2019-06-26T07:51:26.149Z,4.47
2019-06-26T07:55:30.035Z,3.17
2019-06-26T07:59:33.695Z,3.20
2019-06-26T08:03:37.164Z,4.03
2019-06-26T08:07:43.720Z,4.35
2019-06-26T08:11:47.216Z,3.37
2019-06-26T08:15:50.752Z,2.75
2019-06-26T08:19:54.369Z,2.77
2019-06-26T08:23:57.902Z,3.02
2019-06-26T08:28:01.408Z,2.87
2019-06-26T08:32:05.069Z,3.45
2019-06-26T08:36:08.911Z,2.90
2019-06-26T08:40:13.638Z,2.85
2019-06-26T08:44:17.586Z,14.13
2019-06-26T08:48:38.468Z,3.23
2019-06-26T08:52:26.652Z,2.92
2019-06-26T08:56:30.236Z,3.37
2019-06-26T09:00:34.054Z,4.25
2019-06-26T09:04:37.545Z,2.67
2019-06-26T09:08:41.050Z,2.45
2019-06-26T09:12:44.547Z,3.45
2019-06-26T09:16:48.047Z,3.95
2019-06-26T09:20:51.846Z,2.63
2019-06-26T09:24:55.371Z,2.40
2019-06-26T09:28:58.856Z,3.25
2019-06-26T09:33:02.777Z,3.47
2019-06-26T09:37:06.730Z,3.50
2019-06-26T09:41:10.216Z,2.90
2019-06-26T09:45:13.947Z,3.83
2019-06-26T09:49:17.426Z,4.72
2019-06-26T09:53:21.153Z,2.62
2019-06-26T09:57:24.660Z,2.98
2019-06-26T10:01:28.510Z,4.03
2019-06-26T10:05:32.023Z,2.70
2019-06-26T10:09:35.523Z,3.45
2019-06-26T10:22:06.834Z,2.90
2019-06-26T10:26:10.291Z,3.22
2019-06-26T10:30:13.968Z,2.95
2019-06-26T10:34:17.851Z,4.15
2019-06-26T10:38:21.340Z,2.80
2019-06-26T10:42:24.845Z,2.40
2019-06-26T10:46:28.868Z,5.00
2019-06-26T10:50:32.629Z,2.17
2019-06-26T10:54:36.119Z,3.53
2019-06-26T10:58:39.919Z,2.58
2019-06-26T11:02:43.661Z,3.25
2019-06-26T11:06:47.152Z,2.72
2019-06-26T11:10:50.650Z,2.52
2019-06-26T11:14:54.138Z,5.58
2019-06-26T11:18:57.627Z,2.65
2019-06-26T11:23:01.635Z,5.40
2019-06-26T11:27:05.226Z,3.08
2019-06-26T11:31:09.019Z,3.25
2019-06-26T11:35:12.860Z,2.75
2019-06-26T11:39:16.328Z,2.95
2019-06-26T11:43:19.875Z,3.30
2019-06-26T11:47:23.388Z,3.40
2019-06-26T11:51:27.250Z,4.03
2019-06-26T11:55:31.016Z,3.45
2019-06-26T11:59:34.786Z,9.40
2019-06-26T12:03:38.534Z,4.12
2019-06-26T12:07:42.097Z,3.22
2019-06-26T12:11:45.924Z,4.47
2019-06-26T12:15:50.381Z,4.83
2019-06-26T12:19:54.162Z,4.90
2019-06-26T12:23:57.989Z,4.60
2019-06-26T12:28:01.901Z,2.70
2019-06-26T12:32:05.505Z,2.83
2019-06-26T12:36:09.003Z,3.27
2019-06-26T12:40:12.839Z,3.00
2019-06-26T12:44:16.608Z,4.70
2019-06-26T12:48:20.211Z,5.10
2019-06-26T12:52:24.151Z,3.08
2019-06-26T12:56:27.609Z,2.95
2019-06-26T13:00:31.127Z,3.37
2019-06-26T13:04:34.613Z,2.98
2019-06-26T13:08:38.098Z,3.72
2019-06-26T13:12:45.671Z,3.20
2019-06-26T13:16:47.183Z,2.65
2019-06-26T13:20:53.292Z,2.58
2019-06-26T13:24:56.154Z,7.55
2019-06-26T13:28:59.660Z,2.85
2019-06-26T13:33:03.101Z,4.47
2019-06-26T13:37:07.499Z,5.03
2019-06-26T13:41:11.102Z,2.00
2019-06-26T13:45:15.604Z,2.30
2019-06-26T13:49:19.480Z,2.33
2019-06-26T13:53:22.991Z,6.87
2019-06-26T13:57:26.530Z,3.33
2019-06-26T14:01:30.288Z,5.58
2019-06-26T14:05:33.761Z,2.70
2019-06-26T14:09:37.273Z,3.02
2019-06-26T14:13:42.060Z,2.55
2019-06-26T14:17:45.867Z,3.42
2019-06-26T14:21:49.632Z,3.05
2019-06-26T14:25:53.166Z,2.70
2019-06-26T14:29:56.922Z,2.45
2019-06-26T14:34:00.717Z,2.55
2019-06-26T14:38:04.280Z,3.90
2019-06-26T14:42:07.763Z,2.65
2019-06-26T14:46:11.527Z,2.45
2019-06-26T14:50:15.752Z,2.37
2019-06-26T14:54:19.418Z,3.62
2019-06-26T14:58:22.918Z,2.85
2019-06-26T15:02:26.404Z,3.62
2019-06-26T15:06:29.900Z,3.10
2019-06-26T15:10:33.402Z,2.70
2019-06-26T15:14:36.887Z,5.85
2019-06-26T15:18:40.762Z,3.20
2019-06-26T15:22:44.588Z,7.00
2019-06-26T15:26:48.328Z,6.65
2019-06-26T15:30:51.806Z,2.87
2019-06-26T15:34:55.343Z,4.83
2019-06-26T15:38:59.358Z,3.80
2019-06-26T15:43:03.161Z,1.87
2019-06-26T15:47:06.640Z,7.58
2019-06-26T15:51:10.416Z,2.72
2019-06-26T15:55:13.980Z,2.85
2019-06-26T15:59:17.935Z,2.72
2019-06-26T16:03:21.522Z,2.95
2019-06-26T16:07:25.108Z,2.02
2019-06-26T16:11:29.084Z,2.80
2019-06-26T16:15:32.990Z,1.40
2019-06-26T16:19:36.678Z,2.02
2019-06-26T16:23:40.254Z,1.50
2019-06-26T16:27:45.993Z,1.98
2019-06-26T16:31:49.825Z,3.92
2019-06-26T16:35:53.408Z,2.95
2019-06-26T16:39:56.986Z,1.60
2019-06-26T16:44:00.473Z,1.67
2019-06-26T16:48:04.054Z,1.72
2019-06-26T16:52:07.512Z,1.95
2019-06-26T16:56:11.395Z,1.30
2019-06-26T17:00:16.314Z,1.80
2019-06-26T17:04:20.804Z,4.10
2019-06-26T17:08:24.321Z,3.27
2019-06-26T17:12:28.209Z,1.20
2019-06-26T17:16:31.733Z,1.45
2019-06-26T17:20:35.533Z,3.65
2019-06-26T17:24:40.419Z,2.60
2019-06-26T17:28:43.983Z,2.22
2019-06-26T17:32:47.468Z,2.27
2019-06-26T17:36:51.538Z,3.60
2019-06-26T17:40:59.332Z,6.42
2019-06-26T17:45:01.299Z,2.67
2019-06-26T17:49:04.951Z,1.93
2019-06-26T17:53:20.973Z,3.57
2019-06-26T17:57:13.791Z,2.37
2019-06-26T18:01:17.270Z,4.00
2019-06-26T18:05:20.762Z,3.52
2019-06-26T18:09:24.241Z,2.10
2019-06-26T18:13:28.048Z,13.37
2019-06-26T18:17:33.007Z,6.37
2019-06-26T18:21:36.813Z,3.15
2019-06-26T18:25:40.744Z,1.98
2019-06-26T18:29:44.214Z,4.03
2019-06-26T18:33:47.737Z,2.33
2019-06-26T18:37:51.218Z,1.62
2019-06-26T18:41:54.682Z,2.43
2019-06-26T18:45:58.179Z,3.60
2019-06-26T18:50:02.057Z,3.25
2019-06-26T18:54:05.916Z,3.90
2019-06-26T18:58:09.437Z,4.40
2019-06-26T19:02:12.916Z,2.33
2019-06-26T19:06:16.771Z,2.50
2019-06-26T19:10:20.677Z,6.40
2019-06-26T19:14:24.183Z,4.35
2019-06-26T19:18:27.700Z,3.90
2019-06-26T19:30:37.775Z,3.40
2019-06-26T19:34:42.367Z,2.85
2019-06-26T19:38:46.104Z,3.22
2019-06-26T19:42:49.633Z,8.08
2019-06-26T19:46:53.493Z,1.95
2019-06-26T19:50:56.983Z,4.05
2019-06-26T19:55:00.769Z,2.30
2019-06-26T19:59:04.598Z,3.27
2019-06-26T20:03:08.232Z,2.77
2019-06-26T20:15:17.514Z,2.37
2019-06-26T20:19:21.013Z,1.72
2019-06-26T20:23:24.518Z,1.35
2019-06-26T20:27:28.107Z,1.05
2019-06-26T20:31:31.586Z,3.12
2019-06-26T20:35:38.715Z,1.20
2019-06-26T20:39:40.424Z,2.90
2019-06-26T20:43:44.300Z,2.47
2019-06-26T20:47:47.882Z,1.70
2019-06-26T20:51:51.381Z,2.50
2019-06-26T20:55:55.169Z,1.82
2019-06-26T20:59:58.764Z,1.92
2019-06-26T21:04:02.298Z,1.10
2019-06-26T21:08:05.865Z,4.78
2019-06-26T21:12:09.478Z,1.35
2019-06-26T21:16:12.958Z,1.62
2019-06-26T21:20:16.512Z,3.52
2019-06-26T21:24:20.371Z,6.58
2019-06-26T21:28:23.864Z,1.52
2019-06-26T21:32:27.695Z,4.40
2019-06-26T21:36:31.525Z,1.87
2019-06-26T21:40:35.294Z,2.30
2019-06-26T21:44:38.839Z,3.95
2019-06-26T21:48:42.680Z,2.10
2019-06-26T21:52:46.181Z,1.80
2019-06-26T21:56:49.804Z,3.30
2019-06-26T22:00:53.611Z,2.72
2019-06-26T22:04:57.433Z,3.37
2019-06-26T22:09:01.199Z,0.65
2019-06-26T22:13:05.173Z,1.45
2019-06-26T22:17:08.649Z,5.85
2019-06-26T22:21:13.095Z,2.20
2019-06-26T22:25:16.875Z,0.93
2019-06-26T22:29:20.533Z,4.45
2019-06-26T22:33:24.024Z,3.98
2019-06-26T22:37:27.881Z,1.32
2019-06-26T22:41:31.804Z,5.17
2019-06-26T22:45:35.627Z,2.17
2019-06-26T22:49:39.178Z,7.87
2019-06-26T22:53:42.656Z,3.72
2019-06-26T22:57:46.586Z,2.80
2019-06-26T23:01:50.085Z,1.65
2019-06-26T23:05:53.567Z,2.60
2019-06-26T23:09:57.405Z,2.75
2019-06-26T23:14:00.899Z,6.30
2019-06-26T23:18:04.379Z,1.92
2019-06-26T23:22:07.866Z,2.55
2019-06-26T23:26:23.507Z,2.22
2019-06-26T23:30:20.174Z,2.58
2019-06-26T23:34:23.667Z,1.12
2019-06-26T23:38:28.130Z,1.00
2019-06-26T23:42:31.645Z,1.37
2019-06-26T23:46:35.389Z,2.50
2019-06-26T23:50:39.191Z,0.98
2019-06-26T23:54:42.667Z,2.20
2019-06-26T23:58:46.558Z,2.75
